createdAt,value
2019-01-04T00:01:11.610Z,-2.05
2019-01-04T00:03:43.456Z,-1.93
2019-01-04T00:06:15.465Z,-1.91
2019-01-04T00:08:47.701Z,-2.01
2019-01-04T00:11:20.153Z,-2.01
2019-01-04T00:13:52.157Z,-2.03
2019-01-04T00:16:24.358Z,-2.11
2019-01-04T00:18:56.347Z,-2.17
2019-01-04T00:21:28.241Z,-1.97
2019-01-04T00:24:00.470Z,-2.10
2019-01-04T00:26:32.458Z,-1.99
2019-01-04T00:29:04.433Z,-2.09
2019-01-04T00:31:36.322Z,-2.03
2019-01-04T00:34:08.341Z,-2.08
2019-01-04T00:36:40.291Z,-1.97
2019-01-04T00:39:12.266Z,-1.98
2019-01-04T00:41:44.255Z,-1.91
2019-01-04T00:44:16.168Z,-1.88
2019-01-04T00:46:48.128Z,-1.96
2019-01-04T00:49:20.157Z,-1.80
2019-01-04T00:51:52.375Z,-2.03
2019-01-04T00:54:24.382Z,-1.82
2019-01-04T00:57:37.809Z,-1.84
2019-01-04T01:01:03.098Z,-1.85
2019-01-04T01:04:31.296Z,-1.84
2019-01-04T01:08:18.054Z,-1.90
2019-01-04T01:11:39.882Z,-1.94
2019-01-04T01:15:23.051Z,-2.10
2019-01-04T01:18:39.782Z,-2.05
2019-01-04T01:22:09.932Z,-2.00
2019-01-04T01:25:38.114Z,-1.93
2019-01-04T01:29:14.969Z,-1.88
2019-01-04T01:32:41.533Z,-1.87
2019-01-04T01:35:53.311Z,-1.97
2019-01-04T01:39:15.919Z,-2.03
2019-01-04T01:42:37.085Z,-1.94
2019-01-04T01:46:02.355Z,-1.98
2019-01-04T01:49:08.608Z,-1.87
2019-01-04T01:52:10.953Z,-1.90
2019-01-04T01:54:42.915Z,-1.94
2019-01-04T01:57:14.799Z,-1.88
2019-01-04T01:59:46.869Z,-1.95
2019-01-04T02:02:17.674Z,-1.91
2019-01-04T02:04:49.790Z,-1.84
2019-01-04T02:07:21.701Z,-1.76
2019-01-04T02:09:53.496Z,-1.89
2019-01-04T02:12:25.266Z,-1.79
2019-01-04T02:14:57.140Z,-1.83
2019-01-04T02:17:29.187Z,-1.91
2019-01-04T02:20:01.299Z,-1.77
2019-01-04T02:22:33.057Z,-1.76
2019-01-04T02:25:05.427Z,-1.81
2019-01-04T02:27:37.784Z,-1.81
2019-01-04T02:30:10.475Z,-1.82
2019-01-04T02:32:43.558Z,-1.95
2019-01-04T02:35:15.345Z,-1.88
2019-01-04T02:37:47.451Z,-1.84
2019-01-04T02:40:19.390Z,-1.87
2019-01-04T02:42:51.243Z,-1.83
2019-01-04T02:45:23.064Z,-1.84
2019-01-04T02:47:54.832Z,-2.03
2019-01-04T02:50:26.618Z,-1.89
2019-01-04T02:52:58.638Z,-1.96
2019-01-04T02:55:30.429Z,-1.88
2019-01-04T02:58:02.204Z,-1.90
2019-01-04T03:00:34.237Z,-1.94
2019-01-04T03:03:06.131Z,-1.99
2019-01-04T03:05:37.959Z,-1.95
2019-01-04T03:08:09.902Z,-1.87
2019-01-04T03:10:41.796Z,-1.81
2019-01-04T03:13:14.138Z,-1.87
2019-01-04T03:15:46.073Z,-1.86
2019-01-04T03:18:18.007Z,-1.99
2019-01-04T03:20:49.877Z,-1.95
2019-01-04T03:23:21.675Z,-2.01
2019-01-04T03:25:53.575Z,-2.01
2019-01-04T03:28:25.441Z,-1.93
2019-01-04T03:30:57.413Z,-1.93
2019-01-04T03:33:29.179Z,-1.94
2019-01-04T03:36:01.040Z,-1.89
2019-01-04T03:38:32.827Z,-2.12
2019-01-04T03:41:04.692Z,-1.90
2019-01-04T03:43:36.653Z,-1.92
2019-01-04T03:46:08.596Z,-1.95
2019-01-04T03:48:40.458Z,-2.02
2019-01-04T03:51:12.318Z,-2.12
2019-01-04T03:53:44.126Z,-1.94
2019-01-04T03:56:16.049Z,-1.92
2019-01-04T03:58:47.918Z,-1.93
2019-01-04T04:01:19.781Z,-1.98
2019-01-04T04:03:51.641Z,-1.92
2019-01-04T04:06:23.484Z,-1.93
2019-01-04T04:08:55.363Z,-2.05
2019-01-04T04:11:27.490Z,-2.22
2019-01-04T04:13:59.444Z,-2.25
2019-01-04T04:16:31.489Z,-2.32
2019-01-04T04:19:03.447Z,-2.25
2019-01-04T04:21:35.279Z,-2.17
2019-01-04T04:24:07.109Z,-2.19
2019-01-04T04:26:39.040Z,-1.89
2019-01-04T04:29:11.679Z,-1.81
2019-01-04T04:31:43.717Z,-1.98
2019-01-04T04:34:15.588Z,-1.90
2019-01-04T04:36:47.525Z,-1.83
2019-01-04T04:39:19.374Z,-1.78
2019-01-04T04:41:51.564Z,-1.75
2019-01-04T04:44:23.447Z,-1.76
2019-01-04T04:46:55.223Z,-1.79
2019-01-04T04:49:27.151Z,-1.81
2019-01-04T04:51:59.020Z,-1.83
2019-01-04T04:54:30.894Z,-1.81
2019-01-04T04:57:02.672Z,-1.90
2019-01-04T04:59:34.537Z,-1.99
2019-01-04T05:02:06.553Z,-1.93
2019-01-04T05:04:38.683Z,-1.93
2019-01-04T05:07:11.789Z,-1.92
2019-01-04T05:09:43.584Z,-1.93
2019-01-04T05:12:15.646Z,-1.82
2019-01-04T05:14:47.518Z,-1.82
2019-01-04T05:17:19.309Z,-1.94
2019-01-04T05:19:51.365Z,-1.87
2019-01-04T05:22:23.580Z,-1.86
2019-01-04T05:24:55.370Z,-1.84
2019-01-04T05:27:27.214Z,-1.86
2019-01-04T05:29:59.081Z,-1.86
2019-01-04T05:32:30.867Z,-1.88
2019-01-04T05:35:02.731Z,-1.90
2019-01-04T05:37:35.486Z,-1.89
2019-01-04T05:40:08.103Z,-1.89
2019-01-04T05:42:39.964Z,-1.96
2019-01-04T05:45:11.916Z,-1.90
2019-01-04T05:47:43.795Z,-1.93
2019-01-04T05:50:15.651Z,-1.91
2019-01-04T05:52:47.498Z,-1.95
2019-01-04T05:55:19.447Z,-1.96
2019-01-04T05:57:51.576Z,-1.97
2019-01-04T06:00:23.520Z,-1.94
2019-01-04T06:02:55.337Z,-1.91
2019-01-04T06:05:27.137Z,-1.89
2019-01-04T06:07:59.930Z,-1.93
2019-01-04T06:10:31.879Z,-1.96
2019-01-04T06:13:03.748Z,-1.94
2019-01-04T06:15:35.614Z,-1.98
2019-01-04T06:18:07.735Z,-1.94
2019-01-04T06:20:39.678Z,-1.92
2019-01-04T06:23:11.906Z,-1.90
2019-01-04T06:25:43.799Z,-1.94
2019-01-04T06:28:15.857Z,-1.91
2019-01-04T06:30:47.657Z,-1.99
2019-01-04T06:33:19.455Z,-1.96
2019-01-04T06:35:51.344Z,-1.99
2019-01-04T06:38:23.152Z,-1.98
2019-01-04T06:40:55.087Z,-2.04
2019-01-04T06:43:26.955Z,-2.05
2019-01-04T06:45:58.902Z,-1.97
2019-01-04T06:48:30.830Z,-2.09
2019-01-04T06:51:02.820Z,-1.99
2019-01-04T06:53:34.680Z,-2.02
2019-01-04T06:56:07.646Z,-2.02
2019-01-04T06:58:39.592Z,-2.05
2019-01-04T07:01:11.401Z,-2.03
2019-01-04T07:03:43.283Z,-2.04
2019-01-04T07:06:15.244Z,-2.07
2019-01-04T07:08:47.111Z,-2.09
2019-01-04T07:11:19.005Z,-2.07
2019-01-04T07:13:50.880Z,-2.05
2019-01-04T07:16:22.761Z,-1.99
2019-01-04T07:18:54.760Z,-2.06
2019-01-04T07:21:26.650Z,-2.21
2019-01-04T07:23:58.810Z,-2.15
2019-01-04T07:26:30.765Z,-2.19
2019-01-04T07:29:02.629Z,-2.04
2019-01-04T07:31:34.580Z,-2.01
2019-01-04T07:34:06.474Z,-2.03
2019-01-04T07:36:38.283Z,-2.08
2019-01-04T07:39:11.148Z,-2.05
2019-01-04T07:41:43.135Z,-2.03
2019-01-04T07:44:15.014Z,-2.02
2019-01-04T07:46:47.102Z,-2.06
2019-01-04T07:49:18.995Z,-2.24
2019-01-04T07:51:50.883Z,-2.12
2019-01-04T07:54:22.869Z,-2.09
2019-01-04T07:56:55.059Z,-2.08
2019-01-04T07:59:26.990Z,-2.06
2019-01-04T08:01:59.024Z,-2.05
2019-01-04T08:04:30.802Z,-2.36
2019-01-04T08:07:02.596Z,-2.25
2019-01-04T08:09:34.374Z,-2.19
2019-01-04T08:12:06.387Z,-2.18
2019-01-04T08:14:38.168Z,-2.12
2019-01-04T08:17:10.033Z,-2.10
2019-01-04T08:19:42.136Z,-2.18
2019-01-04T08:22:13.935Z,-2.06
2019-01-04T08:24:45.984Z,-2.12
2019-01-04T08:27:17.917Z,-1.98
2019-01-04T08:29:49.774Z,-2.05
2019-01-04T08:32:21.727Z,-1.98
2019-01-04T08:34:53.877Z,-2.04
2019-01-04T08:37:25.742Z,-2.00
2019-01-04T08:39:57.898Z,-1.92
2019-01-04T08:42:29.672Z,-1.96
2019-01-04T08:45:01.806Z,-1.90
2019-01-04T08:47:33.671Z,-1.87
2019-01-04T08:50:06.586Z,-1.90
2019-01-04T08:52:38.774Z,-1.85
2019-01-04T08:55:27.219Z,-1.85
2019-01-04T08:57:59.114Z,-1.99
2019-01-04T09:00:30.875Z,-1.86
2019-01-04T09:03:06.775Z,-1.82
2019-01-04T09:05:38.542Z,-1.69
2019-01-04T09:08:10.719Z,-1.78
2019-01-04T09:10:43.500Z,-1.67
2019-01-04T09:13:15.460Z,-1.76
2019-01-04T09:15:47.560Z,-1.68
2019-01-04T09:18:19.606Z,-1.65
2019-01-04T09:20:51.454Z,-1.67
2019-01-04T09:23:23.346Z,-1.71
2019-01-04T09:25:56.215Z,-1.70
2019-01-04T09:28:28.010Z,-1.72
2019-01-04T09:30:59.858Z,-1.62
2019-01-04T09:33:31.997Z,-1.64
2019-01-04T09:36:03.920Z,-1.61
2019-01-04T09:38:35.850Z,-1.70
2019-01-04T09:42:07.857Z,-1.56
2019-01-04T09:44:39.733Z,-1.48
2019-01-04T09:47:11.850Z,-1.53
2019-01-04T09:49:43.875Z,-1.43
2019-01-04T09:52:15.720Z,-1.48
2019-01-04T09:54:47.655Z,-1.44
2019-01-04T09:57:23.467Z,-1.47
2019-01-04T09:59:53.269Z,-1.45
2019-01-04T10:02:25.201Z,-1.43
2019-01-04T10:04:59.023Z,-1.50
2019-01-04T10:07:30.955Z,-1.38
2019-01-04T10:10:02.879Z,-1.50
2019-01-04T10:12:34.656Z,-1.53
2019-01-04T10:15:08.624Z,-1.49
2019-01-04T10:17:40.482Z,-1.46
2019-01-04T10:20:12.510Z,-1.31
2019-01-04T10:22:44.355Z,-1.33
2019-01-04T10:25:16.478Z,-1.39
2019-01-04T10:27:48.332Z,-1.46
2019-01-04T10:30:28.311Z,-1.41
2019-01-04T10:33:00.780Z,-1.29
2019-01-04T10:35:32.888Z,-1.39
2019-01-04T10:38:04.891Z,-1.31
2019-01-04T10:40:36.926Z,-1.19
2019-01-04T10:43:08.865Z,-1.14
2019-01-04T10:45:40.803Z,-1.22
2019-01-04T10:48:12.770Z,-1.07
2019-01-04T10:50:44.820Z,-1.06
2019-01-04T10:53:16.770Z,-1.09
2019-01-04T10:55:48.572Z,-1.08
2019-01-04T10:58:20.517Z,-1.21
2019-01-04T11:00:52.527Z,-1.26
2019-01-04T11:03:24.374Z,-1.02
2019-01-04T11:05:56.187Z,-1.02
2019-01-04T11:08:28.169Z,-1.06
2019-01-04T11:11:00.025Z,-0.98
2019-01-04T11:13:31.947Z,-1.01
2019-01-04T11:16:03.838Z,-0.99
2019-01-04T11:18:35.714Z,-0.98
2019-01-04T11:21:10.615Z,-0.93
2019-01-04T11:24:11.137Z,-0.92
2019-01-04T11:26:57.379Z,-0.92
2019-01-04T11:30:31.065Z,-1.03
2019-01-04T11:33:52.775Z,-0.99
2019-01-04T11:37:06.838Z,-0.97
2019-01-04T11:40:16.786Z,-1.04
2019-01-04T11:43:36.929Z,-1.06
2019-01-04T11:46:29.246Z,-1.03
2019-01-04T11:50:25.372Z,-0.99
2019-01-04T11:53:09.101Z,-1.14
2019-01-04T11:55:40.914Z,-1.01
2019-01-04T11:58:12.823Z,-1.02
2019-01-04T12:00:44.762Z,-0.99
2019-01-04T12:03:16.690Z,-1.02
2019-01-04T12:05:48.626Z,-1.01
2019-01-04T12:08:20.492Z,-1.14
2019-01-04T12:10:52.439Z,-1.14
2019-01-04T12:13:24.324Z,-1.10
2019-01-04T12:15:56.290Z,-1.11
2019-01-04T12:18:28.414Z,-1.05
2019-01-04T12:21:00.623Z,-1.14
2019-01-04T12:23:32.569Z,-1.16
2019-01-04T12:26:04.569Z,-1.09
2019-01-04T12:28:36.507Z,-1.09
2019-01-04T12:31:08.445Z,-1.11
2019-01-04T12:33:40.301Z,-1.18
2019-01-04T12:36:12.188Z,-1.14
2019-01-04T12:38:44.120Z,-1.07
2019-01-04T12:41:16.078Z,-1.09
2019-01-04T12:43:48.048Z,-1.14
2019-01-04T12:46:20.910Z,-1.10
2019-01-04T12:48:52.786Z,-1.14
2019-01-04T12:51:24.731Z,-1.23
2019-01-04T12:53:56.698Z,-1.11
2019-01-04T12:56:28.938Z,-1.09
2019-01-04T12:59:00.728Z,-1.41
2019-01-04T13:01:33.103Z,-1.25
2019-01-04T13:04:05.261Z,-1.17
2019-01-04T13:06:37.132Z,-1.17
2019-01-04T13:09:09.153Z,-1.32
2019-01-04T13:11:41.024Z,-1.26
2019-01-04T13:14:12.968Z,-1.25
2019-01-04T13:16:45.702Z,-1.23
2019-01-04T13:19:17.553Z,-1.12
2019-01-04T13:21:51.076Z,-1.11
2019-01-04T13:24:22.951Z,-1.09
2019-01-04T13:26:55.061Z,-1.22
2019-01-04T13:29:26.929Z,-1.30
2019-01-04T13:31:58.796Z,-1.30
2019-01-04T13:34:30.726Z,-1.23
2019-01-04T13:37:02.605Z,-1.29
2019-01-04T13:39:34.459Z,-1.14
2019-01-04T13:42:06.425Z,-1.13
2019-01-04T13:44:38.638Z,-1.08
2019-01-04T13:47:11.271Z,-1.17
2019-01-04T13:49:43.143Z,-1.19
2019-01-04T13:52:15.392Z,-1.09
2019-01-04T13:54:47.348Z,-0.99
2019-01-04T13:57:19.214Z,-1.12
2019-01-04T13:59:51.089Z,-1.09
2019-01-04T14:02:33.007Z,-1.05
2019-01-04T14:05:05.224Z,-1.07
2019-01-04T14:07:37.069Z,-1.07
2019-01-04T14:10:10.246Z,-1.19
2019-01-04T14:12:42.028Z,-1.14
2019-01-04T14:15:14.124Z,-1.36
2019-01-04T14:17:45.987Z,-1.12
2019-01-04T14:20:17.983Z,-1.09
2019-01-04T14:22:49.925Z,-1.10
2019-01-04T14:25:21.893Z,-1.16
2019-01-04T14:27:53.784Z,-1.08
2019-01-04T14:30:25.639Z,-1.08
2019-01-04T14:32:57.409Z,-1.12
2019-01-04T14:35:29.317Z,-1.03
2019-01-04T14:38:01.437Z,-1.07
2019-01-04T14:40:33.367Z,-1.13
2019-01-04T14:43:05.541Z,-1.29
2019-01-04T14:45:37.464Z,-1.09
2019-01-04T14:48:09.303Z,-1.18
2019-01-04T14:50:41.205Z,-1.14
2019-01-04T14:53:13.160Z,-1.07
2019-01-04T14:55:45.079Z,-1.03
2019-01-04T14:58:17.039Z,-1.10
2019-01-04T15:00:49.611Z,-1.06
2019-01-04T15:03:21.512Z,-1.09
2019-01-04T15:05:53.610Z,-1.10
2019-01-04T15:08:25.552Z,-1.09
2019-01-04T15:10:57.465Z,-1.07
2019-01-04T15:13:29.272Z,-1.13
2019-01-04T15:16:01.568Z,-1.07
2019-01-04T15:18:33.426Z,-1.17
2019-01-04T15:21:05.349Z,-0.95
2019-01-04T15:23:37.131Z,-0.96
2019-01-04T15:26:08.985Z,-0.99
2019-01-04T15:28:40.848Z,-1.00
2019-01-04T15:31:12.777Z,-0.97
2019-01-04T15:33:44.656Z,-1.00
2019-01-04T15:36:16.500Z,-1.01
2019-01-04T15:38:48.268Z,-1.09
2019-01-04T15:41:20.146Z,-1.05
2019-01-04T15:43:51.994Z,-1.05
2019-01-04T15:46:23.800Z,-1.08
2019-01-04T15:48:55.570Z,-1.03
2019-01-04T15:51:27.452Z,-1.10
2019-01-04T15:53:59.322Z,-1.17
2019-01-04T15:56:31.188Z,-1.07
2019-01-04T15:59:03.028Z,-1.07
2019-01-04T16:01:34.957Z,-1.08
2019-01-04T16:04:06.800Z,-1.17
2019-01-04T16:06:38.575Z,-1.12
2019-01-04T16:09:11.268Z,-1.26
2019-01-04T16:11:43.056Z,-1.04
2019-01-04T16:14:15.043Z,-1.01
2019-01-04T16:16:47.048Z,-0.97
2019-01-04T16:19:18.965Z,-0.98
2019-01-04T16:21:50.816Z,-1.07
2019-01-04T16:24:22.692Z,-0.96
2019-01-04T16:26:54.616Z,-1.00
2019-01-04T16:29:26.391Z,-0.95
2019-01-04T16:31:58.323Z,-0.91
2019-01-04T16:34:30.249Z,-0.92
2019-01-04T16:37:02.111Z,-1.00
2019-01-04T16:39:33.882Z,-0.93
2019-01-04T16:42:06.262Z,-0.99
2019-01-04T16:44:38.137Z,-0.97
2019-01-04T16:47:10.293Z,-0.96
2019-01-04T16:49:42.148Z,-0.90
2019-01-04T16:52:14.084Z,-0.97
2019-01-04T16:54:45.924Z,-0.96
2019-01-04T16:57:17.928Z,-0.94
2019-01-04T16:59:49.766Z,-1.04
2019-01-04T17:02:21.729Z,-0.94
2019-01-04T17:04:53.651Z,-0.99
2019-01-04T17:07:25.498Z,-0.94
2019-01-04T17:09:57.287Z,-0.89
2019-01-04T17:12:29.220Z,-0.91
2019-01-04T17:15:00.988Z,-0.92
2019-01-04T17:17:32.770Z,-0.91
2019-01-04T17:20:04.965Z,-1.07
2019-01-04T17:22:36.813Z,-0.96
2019-01-04T17:25:09.162Z,-1.04
2019-01-04T17:27:41.341Z,-0.90
2019-01-04T17:30:13.251Z,-0.90
2019-01-04T17:33:04.517Z,-0.89
2019-01-04T17:35:36.701Z,-0.85
2019-01-04T17:38:08.458Z,-0.87
2019-01-04T17:40:40.245Z,-0.84
2019-01-04T17:43:12.434Z,-0.85
2019-01-04T17:45:44.402Z,-0.85
2019-01-04T17:48:16.172Z,-0.83
2019-01-04T17:50:48.108Z,-0.89
2019-01-04T17:53:19.898Z,-0.87
2019-01-04T17:55:51.763Z,-0.91
2019-01-04T17:58:23.782Z,-0.91
2019-01-04T18:00:55.710Z,-0.97
2019-01-04T18:03:27.591Z,-1.09
2019-01-04T18:05:59.360Z,-0.94
2019-01-04T18:08:31.201Z,-0.90
2019-01-04T18:11:02.986Z,-0.89
2019-01-04T18:13:34.902Z,-0.87
2019-01-04T18:16:06.842Z,-0.93
2019-01-04T18:18:38.694Z,-1.01
2019-01-04T18:21:11.553Z,-0.98
2019-01-04T18:23:43.410Z,-1.03
2019-01-04T18:26:15.342Z,-1.13
2019-01-04T18:28:47.198Z,-1.19
2019-01-04T18:31:19.138Z,-1.22
2019-01-04T18:33:50.908Z,-1.20
2019-01-04T18:36:22.892Z,-1.24
2019-01-04T18:38:54.734Z,-1.16
2019-01-04T18:41:26.589Z,-1.09
2019-01-04T18:43:58.502Z,-1.10
2019-01-04T18:46:30.479Z,-1.08
2019-01-04T18:49:02.432Z,-1.15
2019-01-04T18:51:34.285Z,-1.18
2019-01-04T18:54:06.205Z,-1.04
2019-01-04T18:56:38.152Z,-1.08
2019-01-04T18:59:10.005Z,-1.03
2019-01-04T19:01:41.866Z,-1.23
2019-01-04T19:04:13.815Z,-1.15
2019-01-04T19:06:45.762Z,-0.99
2019-01-04T19:09:17.549Z,-1.05
2019-01-04T19:11:49.402Z,-0.99
2019-01-04T19:14:21.288Z,-0.98
2019-01-04T19:16:53.203Z,-0.96
2019-01-04T19:19:25.094Z,-0.95
2019-01-04T19:21:57.202Z,-0.95
2019-01-04T19:24:29.196Z,-0.98
2019-01-04T19:27:01.186Z,-0.98
2019-01-04T19:29:33.175Z,-0.95
2019-01-04T19:32:05.278Z,-0.95
2019-01-04T19:34:38.047Z,-0.96
2019-01-04T19:37:10.209Z,-1.05
2019-01-04T19:39:42.613Z,-1.00
2019-01-04T19:42:14.645Z,-1.09
2019-01-04T19:44:46.843Z,-1.03
2019-01-04T19:47:18.850Z,-0.99
2019-01-04T19:49:50.860Z,-0.94
2019-01-04T19:52:23.003Z,-0.99
2019-01-04T19:54:55.585Z,-0.98
2019-01-04T19:57:27.588Z,-1.00
2019-01-04T19:59:59.536Z,-0.99
2019-01-04T20:02:31.592Z,-1.10
2019-01-04T20:05:03.600Z,-0.98
2019-01-04T20:08:40.187Z,-1.01
2019-01-04T20:12:33.685Z,-1.03
2019-01-04T20:16:23.289Z,-1.04
2019-01-04T20:19:20.385Z,-1.03
2019-01-04T20:22:11.108Z,-0.97
2019-01-04T20:25:03.720Z,-0.98
2019-01-04T20:28:09.562Z,-0.98
2019-01-04T20:30:53.941Z,-0.97
2019-01-04T20:33:52.654Z,-0.96
2019-01-04T20:36:43.199Z,-0.95
2019-01-04T20:39:31.603Z,-0.93
2019-01-04T20:42:33.873Z,-0.98
2019-01-04T20:45:25.105Z,-0.98
2019-01-04T20:48:19.049Z,-0.96
2019-01-04T20:51:16.125Z,-0.93
2019-01-04T20:54:25.107Z,-1.09
2019-01-04T20:57:18.811Z,-0.96
2019-01-04T21:00:18.804Z,-0.94
2019-01-04T21:03:09.623Z,-0.92
2019-01-04T21:05:59.142Z,-0.97
2019-01-04T21:08:59.163Z,-0.89
2019-01-04T21:12:02.187Z,-0.86
2019-01-04T21:14:55.985Z,-0.85
2019-01-04T21:17:52.794Z,-0.87
2019-01-04T21:20:43.583Z,-0.87
2019-01-04T21:23:35.348Z,-0.86
2019-01-04T21:26:24.732Z,-0.83
2019-01-04T21:29:10.195Z,-0.84
2019-01-04T21:32:01.031Z,-0.84
2019-01-04T21:34:50.596Z,-0.83
2019-01-04T21:37:39.564Z,-0.84
2019-01-04T21:40:36.714Z,-0.81
2019-01-04T21:43:45.906Z,-0.83
2019-01-04T21:46:35.458Z,-0.83
2019-01-04T21:49:33.242Z,-0.90
2019-01-04T21:52:22.528Z,-0.76
2019-01-04T21:55:13.326Z,-0.76
2019-01-04T21:58:10.071Z,-0.75
2019-01-04T22:00:56.035Z,-0.78
2019-01-04T22:03:46.754Z,-0.78
2019-01-04T22:06:43.546Z,-0.76
2019-01-04T22:09:37.140Z,-0.77
2019-01-04T22:12:39.756Z,-0.78
2019-01-04T22:15:29.293Z,-0.79
2019-01-04T22:18:26.513Z,-0.73
2019-01-04T22:21:22.619Z,-0.94
2019-01-04T22:24:30.282Z,-1.05
2019-01-04T22:27:19.683Z,-0.85
2019-01-04T22:30:07.527Z,-0.99
2019-01-04T22:33:05.317Z,-0.87
2019-01-04T22:35:58.858Z,-0.86
2019-01-04T22:38:44.909Z,-0.77
2019-01-04T22:41:34.392Z,-0.90
2019-01-04T22:44:20.046Z,-0.91
2019-01-04T22:47:10.799Z,-0.77
2019-01-04T22:49:56.447Z,-0.76
2019-01-04T22:52:46.035Z,-0.74
2019-01-04T22:55:52.246Z,-0.78
2019-01-04T22:58:38.013Z,-0.74
2019-01-04T23:01:27.361Z,-0.74
2019-01-04T23:04:16.804Z,-0.90
2019-01-04T23:07:06.037Z,-0.77
2019-01-04T23:09:55.468Z,-0.82
2019-01-04T23:12:52.712Z,-0.86
2019-01-04T23:15:38.373Z,-0.80
2019-01-04T23:18:31.893Z,-0.85
2019-01-04T23:22:07.951Z,-0.86
2019-01-04T23:25:17.022Z,-0.89
2019-01-04T23:28:25.920Z,-0.90
2019-01-04T23:31:12.499Z,-0.87
2019-01-04T23:34:02.600Z,-0.82
2019-01-04T23:37:01.416Z,-0.77
2019-01-04T23:40:02.413Z,-0.75
2019-01-04T23:42:51.688Z,-0.71
2019-01-04T23:45:37.022Z,-0.88
2019-01-04T23:48:26.478Z,-0.74
2019-01-04T23:51:30.519Z,-0.81
2019-01-04T23:54:16.075Z,-0.76
2019-01-04T23:57:06.851Z,-0.75
